Share

Yap, FM

9:42 PM CHUT on April 24, 2014 (GMT +1000)
Guam International (PGUM) Elev 269 ft | 13.48 °N, 144.80 °E | Change Station

Current weather conditions updated 26 minutes ago

Rain
Rain
77 °F
Feels Like 77 °F
N
8
Wind Variable Wind from ENE
Sunrise 6:33 AM
Sunset 6:57 PM
Moon Waning Crescent

Tomorrow is forecast to be Cooler than today. Showers and thunderstorms late tomorrow night.

Pressure 29.89 in
Visibility 4.0 miles
Clouds Few 700 ft
Mostly Cloudy 3400 ft
Overcast 4200 ft
Dew Point 75 °F
Humidity 94%
Rainfall 0.11 in
Snow Depth Not available.
UV 0 out of 16
Pollen Not available.
Air Quality Not available.
Flu Activity
SPECI PGUM 241116Z 07007KT 4SM RA FEW007 BKN034 OVC042 25/24 A2989 RMK AO2 P0003

More Conditions Fewer Conditions

Pressure 29.89 in
Visibility 4.0 miles
Clouds Few 700 ft
Mostly Cloudy 3400 ft
Overcast 4200 ft
Dew Point 75 °F
Humidity 94%
Rainfall 0.11 in
Snow Depth Not available.
UV 0 out of 16
Pollen Not available.
Air Quality Not available.
Flu Activity
SPECI PGUM 241116Z 07007KT 4SM RA FEW007 BKN034 OVC042 25/24 A2989 RMK AO2 P0003

More Conditions Fewer Conditions

10-Day Weather Forecast

Almanac

Astronomy

Apr. 24, 2014 Rise Set
Actual Time 6:33 AM CHUT 6:57 PM CHUT
Civil Twilight 6:12 AM CHUT 7:19 PM CHUT
Nautical Twilight 5:46 AM CHUT 7:44 PM CHUT
Astronomical Twilight 5:21 AM CHUT 8:10 PM CHUT
Moon 2:16 AM CHUT 2:29 PM CHUT
Length of Visible Light 13h 07m
Length of Day
12h 24m
Tomorrow will be 0m 28s longer.
Waning Crescent, 26% of the Moon is Illuminated
Today
Waning Crescent
Apr 29
New
May 6
First Quarter
May 14
Full
May 21
Last Quarter

Community

  • Stacked
    Stacked
  • clouds approaching Red Sox Nation
    clouds approaching Red Sox Nation
  • Balance
    Balance
  • Nestled In
    Nestled In
  • Stunning Sunrise
    Stunning Sunrise

WunderPhotos

Upload Photos

1,704,585 photos uploaded!

WunderBlogs® & News

Nearby

Snow Depth

Station Depth Elevation
No new snow has been reported.

Coastal Water Temperatures

Place Temperature
No Stations Reporting

Earthquake Activity

City Distance Mag. Time & Date
No recent earthquake activity has been reported nearby.
Minimum magnitude displayed is 2.5.

Nearby Weather Stations

There are no personal weather stations in this area.

What do you think?

We're not finished. Please let us know what you like, what you don't like, and what you are still missing.